Time;durP1;ratioP1;P1;durP2;ratioP2;P2;SDS_P1;SDS_P2;PMS_P1;PMS_P2;Temp;Humidity;BMP_temperature;BMP_pressure;BME280_temperature;BME280_humidity;BME280_pressure;Samples;Min_cycle;Max_cycle;Signal;HPM_P1;HPM_P2
2023/01/28 00:00:09;;;;;;;24.30;12.27;;;1.10;99.90;;;;;;6254592;23;20421;-91
2023/01/28 00:02:37;;;;;;;24.97;13.80;;;-0.60;99.90;;;;;;6253502;23;20524;-90
2023/01/28 00:05:05;;;;;;;25.10;13.30;;;-0.60;99.90;;;;;;6250156;23;20405;-91
2023/01/28 00:07:31;;;;;;;24.80;13.30;;;-0.60;99.90;;;;;;6245035;22;20482;-90
2023/01/28 00:09:58;;;;;;;24.00;12.40;;;-0.70;99.90;;;;;;6244225;23;20497;-92
2023/01/28 00:12:26;;;;;;;23.23;13.43;;;-0.80;99.90;;;;;;6244007;23;20938;-90
2023/01/28 00:14:53;;;;;;;21.33;12.37;;;-0.70;99.90;;;;;;6245034;23;20413;-90
2023/01/28 00:17:20;;;;;;;24.40;13.40;;;-0.70;99.90;;;;;;6243886;23;20405;-91
2023/01/28 00:19:49;;;;;;;28.80;13.77;;;-0.60;99.90;;;;;;6245252;23;20413;-90
2023/01/28 00:22:15;;;;;;;21.60;13.47;;;-0.70;99.90;;;;;;6244375;23;20541;-89
2023/01/28 00:24:42;;;;;;;24.57;15.00;;;-0.60;99.90;;;;;;6244118;23;20768;-90
2023/01/28 00:27:09;;;;;;;20.53;13.00;;;-0.70;99.90;;;;;;6243932;23;20452;-90
2023/01/28 00:29:36;;;;;;;22.07;12.27;;;-0.70;99.90;;;;;;6243452;23;20440;-90
2023/01/28 00:32:03;;;;;;;24.07;12.67;;;-0.70;99.90;;;;;;6243847;23;20420;-90
2023/01/28 00:34:30;;;;;;;24.27;13.83;;;-0.80;99.90;;;;;;6243885;22;20413;-90
2023/01/28 00:36:58;;;;;;;23.77;13.70;;;-0.90;99.90;;;;;;6244910;23;20391;-91
2023/01/28 00:39:25;;;;;;;23.93;13.00;;;-1.00;99.90;;;;;;6247583;23;20983;-91
2023/01/28 00:41:53;;;;;;;28.30;15.93;;;-1.00;99.90;;;;;;6245214;23;20408;-91
2023/01/28 00:44:20;;;;;;;27.23;14.70;;;-0.90;99.90;;;;;;6243573;23;20830;-89
2023/01/28 00:46:47;;;;;;;21.90;13.63;;;-0.90;99.90;;;;;;6244586;23;20419;-89
2023/01/28 00:49:14;;;;;;;26.13;13.00;;;-0.90;99.90;;;;;;6244362;23;20421;-92
2023/01/28 00:51:41;;;;;;;22.07;13.67;;;-0.80;99.90;;;;;;6243249;23;20488;-89
2023/01/28 00:54:10;;;;;;;26.83;14.13;;;-0.80;99.90;;;;;;6245326;23;20906;-87
2023/01/28 00:56:39;;;;;;;25.07;12.90;;;-0.80;99.90;;;;;;6244195;23;20416;-90
2023/01/28 00:59:07;;;;;;;24.10;13.37;;;-0.80;99.90;;;;;;6244400;23;20413;-90
2023/01/28 01:01:34;;;;;;;24.00;13.77;;;-0.90;99.90;;;;;;6248134;23;20476;-89
2023/01/28 01:04:02;;;;;;;27.00;15.83;;;-1.00;99.90;;;;;;6247206;23;20512;-89
2023/01/28 01:06:31;;;;;;;34.03;14.33;;;-1.10;99.90;;;;;;6250174;23;20408;-88
2023/01/28 01:08:57;;;;;;;30.07;14.50;;;-1.30;99.90;;;;;;6250968;23;20445;-89
2023/01/28 01:11:26;;;;;;;29.47;15.13;;;-1.20;99.90;;;;;;6253677;23;20410;-89
2023/01/28 01:13:55;;;;;;;28.00;14.93;;;-1.00;99.90;;;;;;6247112;23;20420;-89
2023/01/28 01:16:23;;;;;;;35.73;16.00;;;-1.00;99.90;;;;;;6244553;23;20504;-89
2023/01/28 01:18:51;;;;;;;24.03;14.70;;;-1.10;99.90;;;;;;6247709;23;20417;-89
2023/01/28 01:21:20;;;;;;;25.73;14.30;;;-1.10;99.90;;;;;;6245692;23;20404;-89
2023/01/28 01:23:47;;;;;;;33.30;16.00;;;-1.00;99.90;;;;;;6244351;23;20433;-91
2023/01/28 01:26:14;;;;;;;23.40;13.37;;;-0.90;99.90;;;;;;6244166;23;20394;-89
2023/01/28 01:28:42;;;;;;;30.20;16.20;;;-1.20;99.90;;;;;;6251696;23;20482;-89
2023/01/28 01:31:13;;;;;;;24.63;15.07;;;-1.10;99.90;;;;;;6245871;23;20436;-90
2023/01/28 01:33:41;;;;;;;19.20;11.97;;;-1.30;99.90;;;;;;6244836;23;20622;-90
2023/01/28 01:36:09;;;;;;;27.70;14.10;;;-1.00;99.90;;;;;;6245758;23;20793;-91
2023/01/28 01:38:36;;;;;;;26.80;14.13;;;-1.00;99.90;;;;;;6249163;23;20492;-88
2023/01/28 01:41:05;;;;;;;28.40;13.30;;;-1.10;99.90;;;;;;6251557;23;20419;-89
2023/01/28 01:43:51;;;;;;;29.70;13.23;;;-1.10;99.90;;;;;;6247497;23;20441;-89
2023/01/28 01:46:22;;;;;;;32.17;16.60;;;-1.20;99.90;;;;;;6247480;23;20436;-90
2023/01/28 01:48:49;;;;;;;27.67;13.93;;;-1.20;99.90;;;;;;6268669;22;20449;-88
2023/01/28 01:51:19;;;;;;;33.63;17.10;;;-1.20;99.90;;;;;;6259167;23;20492;-92
2023/01/28 01:53:51;;;;;;;26.70;13.40;;;-1.10;99.90;;;;;;6251628;23;20421;-88
2023/01/28 01:56:22;;;;;;;27.37;14.07;;;-1.10;99.90;;;;;;6259967;23;20960;-87
2023/01/28 01:58:54;;;;;;;27.13;14.73;;;-1.10;99.90;;;;;;6260643;23;20382;-90
2023/01/28 02:01:26;;;;;;;28.17;14.70;;;-1.10;99.90;;;;;;6263643;22;20393;-88
2023/01/28 02:04:00;;;;;;;26.00;14.23;;;-0.70;99.90;;;;;;6255444;23;20445;-91
2023/01/28 02:06:28;;;;;;;24.70;13.60;;;-1.50;99.90;;;;;;6246534;23;20806;-89
2023/01/28 02:08:55;;;;;;;22.60;13.00;;;-1.10;99.90;;;;;;6245336;23;20481;-89
2023/01/28 02:11:25;;;;;;;30.17;15.20;;;-1.00;99.90;;;;;;6246824;22;20432;-90
2023/01/28 02:13:56;;;;;;;22.50;13.47;;;-1.00;99.90;;;;;;6243641;23;20424;-90
2023/01/28 02:16:26;;;;;;;22.87;12.77;;;-0.90;99.90;;;;;;6245522;23;20914;-88
2023/01/28 02:18:53;;;;;;;29.87;14.20;;;-0.90;99.90;;;;;;6243542;22;20740;-89
2023/01/28 02:21:44;;;;;;;25.33;12.37;;;-0.90;99.90;;;;;;6244673;23;20475;-91
2023/01/28 02:24:32;;;;;;;28.17;15.37;;;-0.90;99.90;;;;;;6244406;23;20436;-89
2023/01/28 02:27:20;;;;;;;28.97;14.60;;;-1.00;99.90;;;;;;6257903;23;20472;-90
2023/01/28 02:29:56;;;;;;;25.60;11.93;;;-1.10;99.90;;;;;;6256841;23;20472;-89
2023/01/28 02:32:30;;;;;;;21.60;13.00;;;-1.10;99.90;;;;;;6249266;23;20393;-89
2023/01/28 02:35:04;;;;;;;24.60;12.50;;;-1.00;99.90;;;;;;6247422;22;20390;-91
2023/01/28 02:37:38;;;;;;;29.73;15.20;;;-1.00;99.90;;;;;;6241623;23;20393;-77
2023/01/28 02:40:10;;;;;;;29.00;15.30;;;-1.00;99.90;;;;;;6239380;23;20390;-79
2023/01/28 02:42:40;;;;;;;25.97;12.60;;;-1.00;99.90;;;;;;6239730;23;20398;-77
2023/01/28 02:45:18;;;;;;;30.50;15.13;;;-1.00;99.90;;;;;;6239315;23;20742;-77
2023/01/28 02:47:59;;;;;;;26.90;13.63;;;-1.10;99.90;;;;;;6239186;23;20437;-78
2023/01/28 02:50:34;;;;;;;22.90;14.40;;;-1.00;99.90;;;;;;6241059;22;20978;-77
2023/01/28 02:56:11;;;;;;;31.13;14.83;;;-1.00;99.90;;;;;;6241027;23;20394;-77
2023/01/28 02:58:42;;;;;;;27.17;15.37;;;-1.10;99.90;;;;;;6240914;23;20415;-77
2023/01/28 03:01:21;;;;;;;26.70;14.90;;;-1.20;99.90;;;;;;6241501;23;20398;-77
2023/01/28 03:03:58;;;;;;;27.73;13.20;;;-1.10;99.90;;;;;;6241237;22;20469;-77
2023/01/28 03:06:31;;;;;;;31.17;14.87;;;-1.10;99.90;;;;;;6241060;23;20489;-77
2023/01/28 03:36:54;;;;;;;16.67;11.43;;;-1.10;99.90;;;;;;6241214;23;20385;-77
2023/01/28 03:39:24;;;;;;;18.03;11.87;;;-1.20;99.90;;;;;;6240570;23;21119;-77
2023/01/28 03:42:03;;;;;;;27.27;12.53;;;-1.10;99.90;;;;;;6240911;23;20468;-78
2023/01/28 03:47:14;;;;;;;20.17;12.13;;;-1.00;99.90;;;;;;6240820;23;20390;-77
2023/01/28 03:49:45;;;;;;;27.50;13.23;;;-1.30;99.90;;;;;;6241130;22;20414;-77
2023/01/28 03:52:12;;;;;;;25.47;12.67;;;-1.00;99.90;;;;;;6239979;23;20418;-77
2023/01/28 03:54:39;;;;;;;21.73;12.77;;;-1.10;99.90;;;;;;6240815;23;20401;-77
2023/01/28 03:57:06;;;;;;;21.07;11.80;;;-1.00;99.90;;;;;;6240562;23;20752;-77
2023/01/28 03:59:33;;;;;;;23.03;12.70;;;-1.00;99.90;;;;;;6240358;23;20410;-77
2023/01/28 04:02:04;;;;;;;24.10;13.87;;;-1.00;99.90;;;;;;6240649;23;20399;-79
2023/01/28 04:04:31;;;;;;;23.57;12.50;;;-1.00;99.90;;;;;;6240594;23;20530;-77
2023/01/28 04:07:00;;;;;;;24.03;14.00;;;-1.00;99.90;;;;;;6239908;23;20398;-78
2023/01/28 04:09:27;;;;;;;20.97;13.60;;;-1.00;99.90;;;;;;6240715;23;20406;-77
2023/01/28 04:11:53;;;;;;;27.57;14.03;;;-1.10;99.90;;;;;;6240668;23;20484;-77
2023/01/28 04:14:20;;;;;;;25.50;13.20;;;-1.00;99.90;;;;;;6240410;23;20417;-80
2023/01/28 04:16:47;;;;;;;25.87;13.50;;;-1.10;99.90;;;;;;6241113;23;20418;-77
2023/01/28 04:19:14;;;;;;;25.30;12.67;;;-1.00;99.90;;;;;;6240947;23;20504;-78
2023/01/28 04:21:41;;;;;;;23.83;13.00;;;-1.00;99.90;;;;;;6240574;22;20898;-77
2023/01/28 04:24:10;;;;;;;32.27;14.73;;;-1.10;99.90;;;;;;6239999;22;20442;-77
2023/01/28 04:26:37;;;;;;;21.07;13.00;;;-1.30;99.90;;;;;;6240905;23;20476;-79
2023/01/28 04:29:04;;;;;;;28.00;14.20;;;-1.00;99.90;;;;;;6239904;22;20422;-77
2023/01/28 04:31:31;;;;;;;31.07;15.40;;;-1.00;99.90;;;;;;6240553;23;20591;-80
2023/01/28 04:33:58;;;;;;;26.90;11.83;;;-1.10;99.90;;;;;;6240386;23;20402;-78
2023/01/28 04:36:25;;;;;;;31.27;15.50;;;-1.00;99.90;;;;;;6240963;23;20420;-77
2023/01/28 04:38:52;;;;;;;25.43;13.47;;;-1.00;99.90;;;;;;6240387;22;20416;-77
2023/01/28 04:41:20;;;;;;;23.33;12.90;;;-1.10;99.90;;;;;;6240181;23;20415;-77
2023/01/28 04:43:48;;;;;;;25.27;13.30;;;-1.10;99.90;;;;;;6240444;23;20445;-77
2023/01/28 04:46:15;;;;;;;27.60;13.70;;;-1.10;99.90;;;;;;6240716;23;20416;-77
2023/01/28 04:48:41;;;;;;;25.50;13.17;;;-1.00;99.90;;;;;;6240431;23;20726;-77
2023/01/28 04:51:08;;;;;;;32.67;16.20;;;-1.00;99.90;;;;;;6240836;23;20421;-77
2023/01/28 04:53:35;;;;;;;26.43;13.77;;;-1.00;99.90;;;;;;6240262;23;20722;-77
2023/01/28 04:56:02;;;;;;;21.67;13.53;;;-1.00;99.90;;;;;;6240344;23;20418;-77
2023/01/28 04:58:30;;;;;;;26.87;12.40;;;-1.10;99.90;;;;;;6240288;23;20409;-77
2023/01/28 05:00:59;;;;;;;24.90;13.47;;;-1.10;99.90;;;;;;6240698;23;20920;-82
2023/01/28 05:03:26;;;;;;;24.73;13.83;;;-1.10;99.90;;;;;;6240312;23;20715;-77
2023/01/28 05:05:53;;;;;;;21.80;13.07;;;-1.00;99.90;;;;;;6240517;23;20405;-78
2023/01/28 05:08:20;;;;;;;23.27;12.50;;;-1.00;99.90;;;;;;6240663;23;20413;-78
2023/01/28 05:10:47;;;;;;;24.10;12.00;;;-0.90;99.90;;;;;;6240698;23;20492;-78
2023/01/28 05:13:14;;;;;;;29.03;13.30;;;-1.20;99.90;;;;;;6239780;23;20416;-78
2023/01/28 05:15:42;;;;;;;29.20;13.30;;;-1.10;99.90;;;;;;6240305;23;20488;-78
2023/01/28 05:18:09;;;;;;;22.40;12.70;;;-1.20;99.90;;;;;;6240707;23;20413;-79
2023/01/28 05:20:35;;;;;;;27.60;13.93;;;-1.20;99.90;;;;;;6239965;23;20399;-80
2023/01/28 05:23:02;;;;;;;29.13;15.23;;;-1.30;99.90;;;;;;6240427;23;20417;-78
2023/01/28 05:25:29;;;;;;;25.77;14.60;;;-1.30;99.90;;;;;;6240215;23;20456;-78
2023/01/28 05:27:56;;;;;;;25.00;12.90;;;-1.10;99.90;;;;;;6240000;23;20978;-77
2023/01/28 05:30:22;;;;;;;26.53;12.00;;;-1.10;99.90;;;;;;6239543;23;20417;-79
2023/01/28 05:32:55;;;;;;;26.20;13.53;;;-1.10;99.90;;;;;;6241540;23;20409;-85
2023/01/28 05:35:22;;;;;;;21.30;12.87;;;-1.20;99.90;;;;;;6242093;22;20459;-86
2023/01/28 05:37:49;;;;;;;27.43;14.47;;;-1.00;99.90;;;;;;6243516;23;20402;-78
2023/01/28 05:40:16;;;;;;;28.63;14.60;;;-1.00;99.90;;;;;;6240467;23;20775;-78
2023/01/28 05:42:43;;;;;;;29.37;13.30;;;-1.00;99.90;;;;;;6239827;23;20786;-78
2023/01/28 05:45:10;;;;;;;25.47;13.83;;;-1.00;99.90;;;;;;6240054;23;20633;-80
2023/01/28 05:47:38;;;;;;;23.37;13.60;;;-0.90;99.90;;;;;;6239686;23;20440;-78
2023/01/28 05:50:07;;;;;;;28.77;14.67;;;-0.90;99.90;;;;;;6240408;23;20445;-77
2023/01/28 05:52:34;;;;;;;26.80;13.77;;;-1.00;99.90;;;;;;6240392;23;20413;-78
2023/01/28 05:55:01;;;;;;;25.80;12.50;;;-1.10;99.90;;;;;;6240194;23;20417;-78
2023/01/28 05:57:28;;;;;;;28.53;12.90;;;-1.10;99.90;;;;;;6240225;23;20425;-78
2023/01/28 05:59:55;;;;;;;23.50;12.43;;;-1.20;99.90;;;;;;6239762;23;20922;-78
2023/01/28 06:02:22;;;;;;;21.73;12.20;;;-1.20;99.90;;;;;;6239702;23;20734;-78
2023/01/28 06:04:49;;;;;;;25.30;13.10;;;-1.20;99.90;;;;;;6241213;23;21005;-78
2023/01/28 06:07:19;;;;;;;20.87;10.20;;;-1.00;99.90;;;;;;6255608;23;20474;-84
2023/01/28 06:09:46;;;;;;;20.23;10.90;;;-1.00;99.90;;;;;;6253723;23;20402;-84
2023/01/28 06:12:13;;;;;;;23.37;11.63;;;-1.00;99.90;;;;;;6255253;23;20404;-85
2023/01/28 06:14:40;;;;;;;26.03;11.80;;;-1.00;99.90;;;;;;6255888;23;20415;-84
2023/01/28 06:17:07;;;;;;;22.17;12.00;;;-0.90;99.90;;;;;;6240885;23;20457;-80
2023/01/28 06:19:33;;;;;;;21.53;11.50;;;-0.90;99.90;;;;;;6240247;23;20417;-77
2023/01/28 06:22:00;;;;;;;20.00;12.20;;;-1.00;99.90;;;;;;6240549;23;20406;-75
2023/01/28 06:24:29;;;;;;;20.73;12.27;;;-1.00;99.90;;;;;;6240966;23;20973;-76
2023/01/28 06:26:56;;;;;;;19.70;10.27;;;-1.40;99.90;;;;;;6242189;23;20393;-79
2023/01/28 06:29:22;;;;;;;21.17;11.93;;;-1.40;99.90;;;;;;6242088;23;20397;-74
2023/01/28 06:31:49;;;;;;;22.20;11.20;;;-1.10;99.90;;;;;;6242035;23;20549;-75
2023/01/28 06:34:16;;;;;;;22.80;14.43;;;-1.00;99.90;;;;;;6241660;23;20450;-78
2023/01/28 06:36:43;;;;;;;22.93;11.63;;;-1.10;99.90;;;;;;6241601;23;20425;-76
2023/01/28 06:39:10;;;;;;;22.80;11.30;;;-1.00;99.90;;;;;;6242382;23;20500;-75
2023/01/28 06:41:38;;;;;;;20.93;11.13;;;-1.00;99.90;;;;;;6241469;23;20417;-78
2023/01/28 06:44:05;;;;;;;21.17;10.70;;;-0.90;99.90;;;;;;6241785;23;20409;-78
2023/01/28 06:46:32;;;;;;;23.40;11.87;;;-0.90;99.90;;;;;;6242085;23;20412;-76
2023/01/28 06:48:59;;;;;;;20.43;10.90;;;-0.90;99.90;;;;;;6242257;23;20436;-76
2023/01/28 06:51:26;;;;;;;28.60;13.57;;;-1.00;99.90;;;;;;6246514;23;20413;-77
2023/01/28 06:53:52;;;;;;;29.33;13.90;;;-1.10;99.90;;;;;;6246764;23;20401;-77
2023/01/28 06:56:19;;;;;;;18.90;11.60;;;-1.10;99.90;;;;;;6246503;23;20405;-77
2023/01/28 06:58:47;;;;;;;21.47;11.20;;;-1.10;99.90;;;;;;6248204;23;20412;-79
2023/01/28 07:01:14;;;;;;;24.30;13.00;;;-1.00;99.90;;;;;;6244813;23;20398;-77
2023/01/28 07:03:41;;;;;;;20.13;10.93;;;-1.00;99.90;;;;;;6243896;23;20412;-76
2023/01/28 07:06:08;;;;;;;23.07;12.10;;;-0.90;99.90;;;;;;6241851;23;20877;-77
2023/01/28 07:08:36;;;;;;;21.57;11.10;;;-0.90;99.90;;;;;;6242506;23;20415;-76
2023/01/28 07:11:03;;;;;;;24.27;12.07;;;-0.90;99.90;;;;;;6243773;23;20456;-76
2023/01/28 07:13:30;;;;;;;22.67;13.00;;;-0.90;99.90;;;;;;6244149;23;20417;-76
2023/01/28 07:15:59;;;;;;;25.43;12.47;;;-1.10;99.90;;;;;;6245821;23;20399;-79
2023/01/28 07:18:25;;;;;;;28.17;14.90;;;-1.00;99.90;;;;;;6246815;23;20917;-78
2023/01/28 07:20:53;;;;;;;25.63;13.20;;;-1.00;99.90;;;;;;6247121;23;20414;-81
2023/01/28 07:23:19;;;;;;;25.03;12.10;;;-1.00;99.90;;;;;;6245507;23;20968;-77
2023/01/28 07:25:46;;;;;;;24.10;13.70;;;-1.00;99.90;;;;;;6246332;23;20449;-79
2023/01/28 07:28:13;;;;;;;22.33;12.50;;;-0.90;99.90;;;;;;6242990;23;20987;-76
2023/01/28 07:30:40;;;;;;;23.27;13.50;;;-0.80;99.90;;;;;;6242048;23;20410;-76
2023/01/28 07:33:08;;;;;;;21.23;11.80;;;-0.90;99.90;;;;;;6241651;23;20414;-75
2023/01/28 07:35:34;;;;;;;24.33;11.43;;;-0.80;99.90;;;;;;6240993;23;20444;-76
2023/01/28 07:38:01;;;;;;;22.90;12.97;;;-0.80;99.90;;;;;;6240988;23;20919;-75
2023/01/28 07:40:29;;;;;;;19.60;10.60;;;-0.80;99.90;;;;;;6240684;23;20398;-78
2023/01/28 07:42:55;;;;;;;25.17;12.63;;;-0.80;99.90;;;;;;6240395;23;20424;-76
2023/01/28 07:45:24;;;;;;;19.00;11.60;;;-0.70;99.90;;;;;;6240959;23;20446;-76
2023/01/28 07:47:55;;;;;;;24.23;13.10;;;-0.80;99.90;;;;;;6240940;23;20438;-77
2023/01/28 07:50:24;;;;;;;19.60;12.20;;;-0.90;99.90;;;;;;6241482;23;20794;-76
2023/01/28 07:52:51;;;;;;;19.97;11.03;;;-0.90;99.90;;;;;;6241121;23;20402;-77
2023/01/28 07:55:17;;;;;;;19.37;11.83;;;-0.90;99.90;;;;;;6240349;23;21002;-79
2023/01/28 07:57:59;;;;;;;20.63;11.00;;;-0.90;99.90;;;;;;6240653;23;20408;-76
2023/01/28 08:00:28;;;;;;;20.50;10.83;;;-0.90;99.90;;;;;;6240855;23;20781;-77
2023/01/28 08:02:59;;;;;;;25.70;12.93;;;-0.90;99.90;;;;;;6241225;23;20409;-79
2023/01/28 08:05:32;;;;;;;23.27;9.90;;;-0.90;99.90;;;;;;6240632;23;20437;-76
2023/01/28 08:07:59;;;;;;;21.97;11.40;;;-0.90;99.90;;;;;;6240565;23;20909;-76
2023/01/28 08:10:26;;;;;;;20.97;10.67;;;-0.90;99.90;;;;;;6240614;23;20398;-75
2023/01/28 08:12:54;;;;;;;24.70;12.37;;;-0.90;99.90;;;;;;6240295;23;21000;-76
2023/01/28 08:15:22;;;;;;;21.33;12.40;;;-1.00;99.90;;;;;;6239991;23;20426;-79
2023/01/28 08:17:49;;;;;;;20.23;10.57;;;-1.00;99.90;;;;;;6241175;23;20403;-77
2023/01/28 08:20:16;;;;;;;25.90;12.43;;;-1.00;99.90;;;;;;6241240;23;20414;-76
2023/01/28 08:22:44;;;;;;;18.10;11.77;;;-0.90;99.90;;;;;;6249675;23;20465;-88
2023/01/28 08:25:12;;;;;;;21.03;11.03;;;-0.80;99.90;;;;;;6251856;23;20445;-80
2023/01/28 08:27:39;;;;;;;19.30;11.53;;;-0.80;99.90;;;;;;6243959;23;20460;-84
2023/01/28 08:30:08;;;;;;;31.07;14.77;;;-0.80;99.90;;;;;;6242539;23;20409;-86
2023/01/28 08:32:35;;;;;;;19.37;11.47;;;-0.60;99.90;;;;;;6241970;23;20464;-82
2023/01/28 08:35:02;;;;;;;18.77;9.53;;;-0.60;99.90;;;;;;6240821;23;20986;-81
2023/01/28 08:37:29;;;;;;;21.27;11.60;;;-0.50;99.90;;;;;;6240670;23;20907;-78
2023/01/28 08:39:57;;;;;;;17.50;8.70;;;-0.70;99.90;;;;;;6241142;23;20412;-84
2023/01/28 08:42:23;;;;;;;20.70;11.33;;;-0.60;99.90;;;;;;6242419;23;20410;-81
2023/01/28 08:44:50;;;;;;;19.87;11.80;;;-0.50;99.90;;;;;;6241660;23;20765;-85
2023/01/28 08:47:17;;;;;;;19.63;11.20;;;-0.50;99.90;;;;;;6242971;23;20907;-88
2023/01/28 08:49:49;;;;;;;22.03;11.10;;;-0.50;99.90;;;;;;6243727;23;20927;-91
2023/01/28 08:52:16;;;;;;;18.20;10.50;;;-0.50;99.90;;;;;;6243044;23;20409;-90
2023/01/28 08:54:43;;;;;;;17.47;9.90;;;0.70;99.90;;;;;;6240597;23;20433;-79
2023/01/28 08:57:11;;;;;;;20.50;9.63;;;-0.70;99.90;;;;;;6239299;23;20433;-77
2023/01/28 08:59:43;;;;;;;16.47;9.23;;;-0.70;99.90;;;;;;6239417;23;20421;-79
2023/01/28 09:02:13;;;;;;;17.07;10.53;;;-0.50;99.90;;;;;;6239399;23;20402;-78
2023/01/28 09:04:41;;;;;;;25.00;11.70;;;-0.60;99.90;;;;;;6239707;23;20411;-80
2023/01/28 09:07:07;;;;;;;20.07;10.83;;;-0.40;99.90;;;;;;6240024;23;20439;-80
2023/01/28 09:09:34;;;;;;;22.73;12.00;;;-0.30;99.90;;;;;;6239448;23;20393;-83
2023/01/28 09:12:01;;;;;;;21.27;11.00;;;-0.20;99.90;;;;;;6240225;23;20410;-79
2023/01/28 09:14:29;;;;;;;20.33;11.83;;;-0.20;99.90;;;;;;6240788;23;20409;-78
2023/01/28 09:16:56;;;;;;;16.37;9.70;;;-0.10;99.90;;;;;;6240571;23;20408;-78
2023/01/28 09:19:23;;;;;;;20.63;12.90;;;-0.10;99.90;;;;;;6238470;23;20414;-76
2023/01/28 09:21:49;;;;;;;17.67;10.03;;;-0.10;99.90;;;;;;6238633;23;20405;-75
2023/01/28 09:24:17;;;;;;;16.43;9.73;;;-0.30;99.90;;;;;;6239039;23;20424;-77
2023/01/28 09:26:44;;;;;;;19.63;11.50;;;-0.20;99.90;;;;;;6238581;23;20463;-77
2023/01/28 09:29:11;;;;;;;18.03;10.70;;;0.00;99.90;;;;;;6238641;23;20907;-76
2023/01/28 09:31:40;;;;;;;20.37;11.07;;;-0.10;99.90;;;;;;6238723;23;20484;-76
2023/01/28 09:34:07;;;;;;;15.67;10.37;;;0.10;99.90;;;;;;6238214;23;20443;-76
2023/01/28 09:36:33;;;;;;;22.03;10.60;;;0.10;99.90;;;;;;6237854;23;20916;-76
2023/01/28 09:39:00;;;;;;;19.00;9.80;;;0.10;99.90;;;;;;6239089;23;20402;-77
2023/01/28 09:41:29;;;;;;;16.63;9.83;;;0.20;99.90;;;;;;6237995;23;20422;-82
2023/01/28 09:44:26;;;;;;;17.93;11.30;;;0.20;99.90;;;;;;6238574;23;20414;-78
2023/01/28 09:47:00;;;;;;;17.70;11.10;;;0.30;99.90;;;;;;6238628;23;20745;-77
2023/01/28 09:49:33;;;;;;;16.03;9.53;;;0.50;99.90;;;;;;6238579;23;20778;-79
2023/01/28 09:52:03;;;;;;;14.67;9.53;;;0.40;99.90;;;;;;6235647;23;20493;-77
2023/01/28 09:54:38;;;;;;;16.47;9.70;;;0.50;99.90;;;;;;6237463;23;20918;-77
2023/01/28 09:57:14;;;;;;;18.20;11.03;;;1.90;99.90;;;;;;6238696;23;20393;-78
2023/01/28 09:59:41;;;;;;;18.20;9.87;;;0.70;99.90;;;;;;6236916;23;20693;-79
2023/01/28 10:02:41;;;;;;;19.37;11.27;;;1.60;99.90;;;;;;6237172;23;20493;-80
2023/01/28 10:05:19;;;;;;;18.40;10.17;;;0.70;99.90;;;;;;6238115;23;20787;-78
2023/01/28 10:07:58;;;;;;;19.20;10.33;;;0.80;99.90;;;;;;6237983;23;20473;-70
2023/01/28 10:10:29;;;;;;;22.77;12.57;;;1.10;99.90;;;;;;6236871;23;20398;-76
2023/01/28 10:13:14;;;;;;;21.50;11.30;;;0.60;99.90;;;;;;6238205;23;20458;-83
2023/01/28 10:15:59;;;;;;;16.50;11.53;;;0.90;99.90;;;;;;6232970;23;20440;-86
2023/01/28 10:18:38;;;;;;;17.93;10.80;;;1.10;99.90;;;;;;6233714;23;20525;-82
2023/01/28 10:21:10;;;;;;;19.00;11.90;;;0.90;99.90;;;;;;6236493;23;20425;-85
2023/01/28 10:26:34;;;;;;;14.63;9.10;;;1.20;99.90;;;;;;6233765;23;20471;-79
2023/01/28 10:29:14;;;;;;;18.53;9.73;;;1.30;99.90;;;;;;6232717;23;20425;-81
2023/01/28 10:31:52;;;;;;;15.67;9.00;;;1.00;99.90;;;;;;6234316;23;20453;-78
2023/01/28 10:34:23;;;;;;;17.80;10.13;;;1.10;99.90;;;;;;6234149;23;20742;-80
2023/01/28 10:36:51;;;;;;;13.37;9.00;;;1.70;99.90;;;;;;6234789;23;20413;-78
2023/01/28 10:39:21;;;;;;;14.97;9.67;;;1.40;99.90;;;;;;6235044;23;20509;-77
2023/01/28 10:41:48;;;;;;;17.73;10.60;;;1.80;99.90;;;;;;6235201;23;20423;-78
2023/01/28 10:44:20;;;;;;;20.47;11.10;;;1.60;99.90;;;;;;6235231;23;20414;-77
2023/01/28 10:46:49;;;;;;;17.10;11.70;;;1.60;99.90;;;;;;6235258;23;20454;-80
2023/01/28 10:49:22;;;;;;;14.10;8.93;;;1.60;99.90;;;;;;6234891;23;20732;-80
2023/01/28 10:51:51;;;;;;;13.13;9.00;;;1.50;99.90;;;;;;6235974;23;20445;-82
2023/01/28 10:54:23;;;;;;;19.40;10.70;;;1.40;99.90;;;;;;6236364;23;20715;-81
2023/01/28 10:56:53;;;;;;;17.50;10.77;;;1.70;99.90;;;;;;6236067;23;20494;-84
2023/01/28 10:59:27;;;;;;;20.03;10.13;;;1.80;99.90;;;;;;6236401;23;20655;-78
2023/01/28 11:01:57;;;;;;;18.00;9.00;;;1.90;99.90;;;;;;6236680;23;20405;-77
2023/01/28 11:04:26;;;;;;;17.23;10.10;;;2.00;99.90;;;;;;6235889;23;20512;-78
2023/01/28 11:07:08;;;;;;;15.80;9.33;;;2.20;99.90;;;;;;6235543;23;21044;-77
2023/01/28 11:09:38;;;;;;;14.23;9.23;;;2.20;99.90;;;;;;6235074;23;20778;-82
2023/01/28 11:12:24;;;;;;;18.03;9.37;;;2.40;99.90;;;;;;6238609;23;20406;-79
2023/01/28 11:14:52;;;;;;;14.40;8.97;;;2.50;99.90;;;;;;6239230;23;20763;-77
2023/01/28 11:17:23;;;;;;;16.30;10.10;;;2.40;99.90;;;;;;6239783;23;20391;-80
2023/01/28 11:19:51;;;;;;;14.60;9.60;;;2.70;99.90;;;;;;6236806;23;20422;-79
2023/01/28 11:22:24;;;;;;;14.90;9.90;;;2.30;99.90;;;;;;6237410;23;20744;-81
2023/01/28 11:24:51;;;;;;;15.83;9.43;;;2.40;99.90;;;;;;6240516;23;20418;-79
2023/01/28 11:27:20;;;;;;;16.67;10.23;;;2.50;99.90;;;;;;6242654;23;20430;-80
2023/01/28 11:29:48;;;;;;;16.00;9.20;;;2.50;99.90;;;;;;6241234;23;20414;-80
2023/01/28 11:32:21;;;;;;;13.73;9.13;;;2.60;99.90;;;;;;6241462;23;20399;-82
2023/01/28 11:34:53;;;;;;;17.47;10.60;;;2.60;99.90;;;;;;6241469;23;20452;-83
2023/01/28 11:40:15;;;;;;;13.40;8.47;;;2.70;99.90;;;;;;6232889;22;20465;-76
2023/01/28 11:42:42;;;;;;;11.83;9.00;;;2.60;99.90;;;;;;6249032;23;20468;-92
2023/01/28 11:45:17;;;;;;;18.87;10.07;;;2.70;99.90;;;;;;6246454;23;20842;-93
2023/01/28 11:48:13;;;;;;;12.07;8.80;;;2.70;99.90;;;;;;6245700;23;20480;-93
2023/01/28 11:50:47;;;;;;;10.83;8.00;;;2.60;99.90;;;;;;6248140;23;20472;-93
2023/01/28 11:53:40;;;;;;;14.90;9.47;;;2.70;99.90;;;;;;6250558;23;20403;-91
2023/01/28 11:56:26;;;;;;;14.20;8.03;;;2.70;99.90;;;;;;6250464;23;20399;-93
2023/01/28 11:59:03;;;;;;;12.13;7.97;;;2.50;99.90;;;;;;6250421;23;20379;-94
2023/01/28 12:01:42;;;;;;;13.40;8.27;;;2.90;99.90;;;;;;6250103;23;20869;-92
2023/01/28 12:04:23;;;;;;;14.83;8.27;;;2.50;99.90;;;;;;6250165;23;20385;-91
2023/01/28 12:07:13;;;;;;;10.23;8.50;;;2.60;99.90;;;;;;6253055;23;20489;-92
2023/01/28 12:09:48;;;;;;;14.60;8.03;;;2.40;99.90;;;;;;6257063;23;20398;-91
2023/01/28 12:12:43;;;;;;;14.47;8.97;;;2.50;99.90;;;;;;6258766;23;20446;-93
2023/01/28 12:15:58;;;;;;;16.40;9.17;;;2.00;99.90;;;;;;6256832;23;20420;-92
2023/01/28 12:21:08;;;;;;;13.00;8.20;;;2.10;99.90;;;;;;6265270;22;20441;-95
2023/01/28 12:24:05;;;;;;;10.80;7.60;;;3.40;99.90;;;;;;6267338;23;20402;-93
2023/01/28 12:26:41;;;;;;;13.70;7.83;;;4.70;99.90;;;;;;6267014;23;20407;-94
2023/01/28 12:29:22;;;;;;;11.70;7.67;;;1.70;99.90;;;;;;6267589;23;20881;-95
2023/01/28 12:32:20;;;;;;;10.27;7.20;;;3.40;99.90;;;;;;6267303;23;20404;-94
2023/01/28 12:35:11;;;;;;;8.33;5.83;;;1.20;99.90;;;;;;6268807;22;20419;-94
2023/01/28 12:37:55;;;;;;;10.83;6.57;;;2.70;99.90;;;;;;6267471;23;20414;-95
2023/01/28 12:40:47;;;;;;;11.10;6.40;;;3.90;99.90;;;;;;6267257;23;20405;-93
2023/01/28 12:43:20;;;;;;;14.07;7.43;;;2.70;99.90;;;;;;6266885;23;20383;-94
2023/01/28 12:45:55;;;;;;;13.57;8.67;;;4.50;99.90;;;;;;6265881;23;20476;-96
2023/01/28 12:48:29;;;;;;;17.00;9.27;;;4.70;99.90;;;;;;6265591;23;20405;-95
2023/01/28 12:51:03;;;;;;;15.10;10.13;;;1.50;99.90;;;;;;6264118;23;20397;-94
2023/01/28 12:53:38;;;;;;;18.40;9.90;;;2.50;99.90;;;;;;6266939;23;20403;-91
2023/01/28 12:56:14;;;;;;;17.87;9.63;;;3.20;99.90;;;;;;6265240;23;20856;-93
2023/01/28 12:58:47;;;;;;;19.87;11.37;;;2.00;99.90;;;;;;6265633;23;20401;-91
2023/01/28 13:01:21;;;;;;;16.13;9.57;;;2.00;99.90;;;;;;6266057;23;20413;-94
2023/01/28 13:03:55;;;;;;;19.87;9.83;;;1.40;99.90;;;;;;6266964;23;20402;-93
2023/01/28 13:06:28;;;;;;;17.50;10.33;;;1.80;99.90;;;;;;6264565;23;20453;-95
2023/01/28 13:09:01;;;;;;;16.43;9.80;;;3.00;99.90;;;;;;6260383;23;20420;-93
2023/01/28 13:11:35;;;;;;;15.33;10.70;;;1.50;99.90;;;;;;6259260;23;20379;-95
2023/01/28 13:14:02;;;;;;;12.07;8.93;;;1.00;99.90;;;;;;6253597;23;20411;-92
2023/01/28 13:16:31;;;;;;;16.77;9.47;;;0.40;99.90;;;;;;6252040;23;20481;-93
2023/01/28 13:19:06;;;;;;;13.20;8.50;;;0.60;99.90;;;;;;6249095;23;20414;-92
2023/01/28 13:21:35;;;;;;;11.00;8.50;;;0.70;99.90;;;;;;6255110;23;20417;-91
2023/01/28 13:24:20;;;;;;;15.90;8.53;;;2.60;99.90;;;;;;6251888;23;20485;-92
2023/01/28 13:26:48;;;;;;;16.83;9.30;;;1.30;99.90;;;;;;6246099;23;20919;-80
2023/01/28 13:29:28;;;;;;;38.83;31.13;;;1.00;99.90;;;;;;6244081;22;20445;-95
2023/01/28 13:31:59;;;;;;;13.60;9.87;;;1.80;99.90;;;;;;6241053;23;20911;-94